createdAt,value
2022-11-19T00:01:34.008Z,31.77
2022-11-19T00:04:01.568Z,33.30
2022-11-19T00:06:30.472Z,31.90
2022-11-19T00:08:58.010Z,33.27
2022-11-19T00:11:41.957Z,31.57
2022-11-19T00:14:12.255Z,32.40
2022-11-19T00:16:39.973Z,31.47
2022-11-19T00:19:07.887Z,31.77
2022-11-19T00:21:36.869Z,32.30
2022-11-19T00:24:04.650Z,31.57
2022-11-19T00:26:32.200Z,32.37
2022-11-19T00:28:59.724Z,32.07
2022-11-19T00:31:27.267Z,32.97
2022-11-19T00:33:55.419Z,32.67
2022-11-19T00:36:24.092Z,32.30
2022-11-19T00:38:53.008Z,32.33
2022-11-19T00:41:20.567Z,33.70
2022-11-19T00:43:47.380Z,30.80
2022-11-19T00:46:15.442Z,31.57
2022-11-19T00:48:43.507Z,31.47
2022-11-19T00:51:12.671Z,33.43
2022-11-19T00:53:40.524Z,32.10
2022-11-19T00:56:11.652Z,32.00
2022-11-19T00:58:39.690Z,31.33
2022-11-19T01:01:08.664Z,30.77
2022-11-19T01:03:36.904Z,31.50
2022-11-19T01:06:04.993Z,30.57
2022-11-19T01:08:32.765Z,31.50
2022-11-19T01:11:05.528Z,31.40
2022-11-19T01:13:38.077Z,32.17
2022-11-19T01:16:08.640Z,31.73
2022-11-19T01:18:37.548Z,31.70
2022-11-19T01:21:06.737Z,30.70
2022-11-19T01:23:34.645Z,30.50
2022-11-19T01:26:02.843Z,31.17
2022-11-19T01:28:30.601Z,30.30
2022-11-19T01:30:59.517Z,30.50
2022-11-19T01:33:27.311Z,30.30
2022-11-19T01:35:59.510Z,30.87
2022-11-19T01:38:28.123Z,29.70
2022-11-19T01:40:56.573Z,29.97
2022-11-19T01:43:44.097Z,30.30
2022-11-19T01:46:14.936Z,30.50
2022-11-19T01:48:46.920Z,31.37
2022-11-19T01:51:18.136Z,29.73
2022-11-19T01:53:48.765Z,30.00
2022-11-19T01:56:19.344Z,30.13
2022-11-19T01:58:50.924Z,30.43
2022-11-19T02:01:20.912Z,30.60
2022-11-19T02:03:49.894Z,30.90
2022-11-19T02:06:17.464Z,30.93
2022-11-19T02:08:47.684Z,30.83
2022-11-19T02:11:34.448Z,30.50
2022-11-19T02:14:16.356Z,30.63
2022-11-19T02:16:56.303Z,29.53
2022-11-19T02:19:53.429Z,31.43
2022-11-19T02:22:40.078Z,30.00
2022-11-19T02:25:19.683Z,29.83
2022-11-19T02:28:05.852Z,29.93
2022-11-19T02:30:37.902Z,31.10
2022-11-19T02:33:09.563Z,32.30
2022-11-19T02:35:46.204Z,32.57
2022-11-19T02:38:22.601Z,33.50
2022-11-19T02:40:57.032Z,32.67
2022-11-19T02:43:28.360Z,31.03
2022-11-19T02:46:00.179Z,32.43
2022-11-19T02:48:33.799Z,31.80
2022-11-19T02:51:03.613Z,31.07
2022-11-19T02:53:31.528Z,31.73
2022-11-19T02:56:14.361Z,32.73
2022-11-19T02:59:03.794Z,31.90
2022-11-19T03:01:52.816Z,31.90
2022-11-19T03:04:32.709Z,31.73
2022-11-19T03:07:05.543Z,30.90
2022-11-19T03:09:36.708Z,31.53
2022-11-19T03:12:13.220Z,30.90
2022-11-19T03:15:07.730Z,32.20
2022-11-19T03:17:53.352Z,32.27
2022-11-19T03:20:26.355Z,31.27
2022-11-19T03:22:59.204Z,31.93
2022-11-19T03:25:29.820Z,31.87
2022-11-19T03:28:01.610Z,31.73
2022-11-19T03:30:31.378Z,31.40
2022-11-19T03:33:03.850Z,32.93
2022-11-19T03:35:36.702Z,34.20
2022-11-19T03:38:08.390Z,32.33
2022-11-19T03:40:37.738Z,32.60
2022-11-19T03:43:09.231Z,32.70
2022-11-19T03:45:41.696Z,33.07
2022-11-19T03:48:12.364Z,30.97
2022-11-19T03:50:48.665Z,31.77
2022-11-19T03:53:16.820Z,32.90
2022-11-19T03:55:47.990Z,31.87
2022-11-19T03:58:15.732Z,33.20
2022-11-19T04:00:43.368Z,32.90
2022-11-19T04:03:12.277Z,32.10
2022-11-19T04:05:39.844Z,33.87
2022-11-19T04:08:07.404Z,33.70
2022-11-19T04:10:35.069Z,34.70
2022-11-19T04:13:02.651Z,33.83
2022-11-19T04:15:30.184Z,34.23
2022-11-19T04:17:57.774Z,33.87
2022-11-19T04:20:26.708Z,35.23
2022-11-19T04:22:54.366Z,34.83
2022-11-19T04:25:21.953Z,35.07
2022-11-19T04:27:49.616Z,34.67
2022-11-19T04:30:17.639Z,36.87
2022-11-19T04:32:45.180Z,35.67
2022-11-19T04:35:14.023Z,36.33
2022-11-19T04:37:42.920Z,36.60
2022-11-19T04:40:11.693Z,35.30
2022-11-19T04:42:39.236Z,35.57
2022-11-19T04:45:07.837Z,36.30
2022-11-19T04:47:35.422Z,36.10
2022-11-19T04:50:02.977Z,34.50
2022-11-19T04:52:37.696Z,35.20
2022-11-19T04:55:10.776Z,35.30
2022-11-19T04:57:38.345Z,36.93
2022-11-19T05:00:08.110Z,35.87
2022-11-19T05:02:35.725Z,34.80
2022-11-19T05:05:03.341Z,33.83
2022-11-19T05:07:31.040Z,32.77
2022-11-19T05:09:58.812Z,33.20
2022-11-19T05:12:27.783Z,35.50
2022-11-19T05:14:55.368Z,35.67
2022-11-19T05:17:22.936Z,34.30
2022-11-19T05:19:50.529Z,34.90
2022-11-19T05:22:18.076Z,35.43
2022-11-19T05:24:45.669Z,36.20
2022-11-19T05:27:13.244Z,34.47
2022-11-19T05:29:42.126Z,34.80
2022-11-19T05:32:09.784Z,36.10
2022-11-19T05:34:37.329Z,35.53
2022-11-19T05:37:04.912Z,38.57
2022-11-19T05:39:33.681Z,36.47
2022-11-19T05:42:01.265Z,36.80
2022-11-19T05:44:29.361Z,38.00
2022-11-19T05:46:59.717Z,37.17
2022-11-19T05:49:27.308Z,36.37
2022-11-19T05:51:54.857Z,34.00
2022-11-19T05:54:22.552Z,35.10
2022-11-19T05:56:50.148Z,35.30
2022-11-19T05:59:18.267Z,35.00
2022-11-19T06:01:46.020Z,35.97
2022-11-19T06:04:14.909Z,37.30
2022-11-19T06:06:42.516Z,36.47
2022-11-19T06:09:10.308Z,34.50
2022-11-19T06:11:50.295Z,33.60
2022-11-19T06:14:20.332Z,34.90
2022-11-19T06:16:47.897Z,35.90
2022-11-19T06:19:16.939Z,37.33
2022-11-19T06:21:44.799Z,36.00
2022-11-19T06:24:13.105Z,36.93
2022-11-19T06:26:41.221Z,36.00
2022-11-19T06:29:09.386Z,35.60
2022-11-19T06:31:36.978Z,37.30
2022-11-19T06:34:04.538Z,34.60
2022-11-19T06:36:39.075Z,36.97
2022-11-19T06:39:09.842Z,35.87
2022-11-19T06:41:37.821Z,36.87
2022-11-19T06:44:05.826Z,36.30
2022-11-19T06:46:33.384Z,34.90
2022-11-19T06:49:00.936Z,35.83
2022-11-19T06:51:28.494Z,37.33
2022-11-19T06:53:57.430Z,36.30
2022-11-19T06:56:25.098Z,35.40
2022-11-19T06:58:56.525Z,35.10
2022-11-19T07:01:24.081Z,35.80
2022-11-19T07:03:51.642Z,35.13
2022-11-19T07:06:19.205Z,35.40
2022-11-19T07:08:46.758Z,36.50
2022-11-19T07:11:27.516Z,36.30
2022-11-19T07:13:58.965Z,36.30
2022-11-19T07:16:28.820Z,37.17
2022-11-19T07:18:58.517Z,36.93
2022-11-19T07:21:26.616Z,36.20
2022-11-19T07:23:55.181Z,35.83
2022-11-19T07:26:24.280Z,34.23
2022-11-19T07:28:52.132Z,36.10
2022-11-19T07:31:19.968Z,33.83
2022-11-19T07:33:47.633Z,35.00
2022-11-19T07:36:18.351Z,34.43
2022-11-19T07:38:46.970Z,35.90
2022-11-19T07:41:32.470Z,36.70
2022-11-19T07:44:01.402Z,35.23
2022-11-19T07:46:29.193Z,36.00
2022-11-19T07:48:57.909Z,36.77
2022-11-19T07:51:26.044Z,35.90
2022-11-19T07:53:55.912Z,36.60
2022-11-19T07:56:24.672Z,36.43
2022-11-19T07:58:52.301Z,36.07
2022-11-19T08:01:23.731Z,35.37
2022-11-19T08:03:56.283Z,36.43
2022-11-19T08:06:25.932Z,37.40
2022-11-19T08:08:53.572Z,37.13
2022-11-19T08:11:21.134Z,38.47
2022-11-19T08:13:48.804Z,38.10
2022-11-19T08:16:37.572Z,38.27
2022-11-19T08:19:07.692Z,38.00
2022-11-19T08:21:35.486Z,36.70
2022-11-19T08:24:03.226Z,37.80
2022-11-19T08:26:30.814Z,36.20
2022-11-19T08:28:58.439Z,35.87
2022-11-19T08:31:26.643Z,35.93
2022-11-19T08:33:54.214Z,37.57
2022-11-19T08:36:23.165Z,36.27
2022-11-19T08:38:50.756Z,36.63
2022-11-19T08:41:36.133Z,37.53
2022-11-19T08:44:04.549Z,37.00
2022-11-19T08:46:32.132Z,36.40
2022-11-19T08:48:59.846Z,37.27
2022-11-19T08:51:28.789Z,36.30
2022-11-19T08:53:56.408Z,37.17
2022-11-19T08:56:24.761Z,37.33
2022-11-19T08:58:58.501Z,36.37
2022-11-19T09:01:28.940Z,37.77
2022-11-19T09:03:56.501Z,36.70
2022-11-19T09:06:24.151Z,37.27
2022-11-19T09:08:53.068Z,35.97
2022-11-19T09:11:22.176Z,36.00
2022-11-19T09:13:49.839Z,38.13
2022-11-19T09:16:17.749Z,39.17
2022-11-19T09:18:45.422Z,38.60
2022-11-19T09:21:13.449Z,37.83
2022-11-19T09:23:41.406Z,36.63
2022-11-19T09:26:13.508Z,37.87
2022-11-19T09:28:42.057Z,38.30
2022-11-19T09:31:14.732Z,40.37
2022-11-19T09:33:45.624Z,39.90
2022-11-19T09:36:14.200Z,39.40
2022-11-19T09:38:42.629Z,39.03
2022-11-19T09:41:32.791Z,38.67
2022-11-19T09:44:13.559Z,42.10
2022-11-19T09:46:48.263Z,42.13
2022-11-19T09:49:22.924Z,41.33
2022-11-19T09:51:57.459Z,39.37
2022-11-19T09:54:25.613Z,39.33
2022-11-19T09:57:01.756Z,40.40
2022-11-19T09:59:36.470Z,40.20
2022-11-19T10:02:13.830Z,39.10
2022-11-19T10:04:41.413Z,37.50
2022-11-19T10:07:16.311Z,37.53
2022-11-19T10:09:57.051Z,37.73
2022-11-19T10:12:46.758Z,38.23
2022-11-19T10:15:23.925Z,38.40
2022-11-19T10:18:01.123Z,39.10
2022-11-19T10:20:52.755Z,38.87
2022-11-19T10:23:25.424Z,39.73
2022-11-19T10:26:00.133Z,39.13
2022-11-19T10:28:32.866Z,39.67
2022-11-19T10:31:08.032Z,39.30
2022-11-19T10:33:40.235Z,40.50
2022-11-19T10:36:11.728Z,39.47
2022-11-19T10:38:51.204Z,41.00
2022-11-19T10:41:27.252Z,38.97
2022-11-19T10:44:01.704Z,40.10
2022-11-19T10:46:29.764Z,39.30
2022-11-19T10:48:59.668Z,36.77
2022-11-19T10:51:30.890Z,39.60
2022-11-19T10:53:58.901Z,37.50
2022-11-19T10:56:40.776Z,37.77
2022-11-19T10:59:13.975Z,36.90
2022-11-19T11:01:44.752Z,40.10
2022-11-19T11:04:19.321Z,39.07
2022-11-19T11:06:52.785Z,39.17
2022-11-19T11:09:34.884Z,37.93
2022-11-19T11:12:32.333Z,39.30
2022-11-19T11:15:13.713Z,38.10
2022-11-19T11:17:44.621Z,39.70
2022-11-19T11:20:26.995Z,37.70
2022-11-19T11:23:07.604Z,38.43
2022-11-19T11:25:35.377Z,38.33
2022-11-19T11:28:08.032Z,38.20
2022-11-19T11:30:37.090Z,38.33
2022-11-19T11:33:27.516Z,36.97
2022-11-19T11:35:58.345Z,35.20
2022-11-19T11:38:27.929Z,37.27
2022-11-19T11:41:44.047Z,36.07
2022-11-19T11:44:02.312Z,34.60
2022-11-19T11:46:38.221Z,37.37
2022-11-19T11:49:12.471Z,34.90
2022-11-19T11:51:40.814Z,35.60
2022-11-19T11:54:18.326Z,36.70
2022-11-19T11:56:46.957Z,36.30
2022-11-19T11:59:17.520Z,34.77
2022-11-19T12:01:54.697Z,34.80
2022-11-19T12:04:23.223Z,34.97
2022-11-19T12:07:03.810Z,35.67
2022-11-19T12:09:38.562Z,34.23
2022-11-19T12:12:14.269Z,33.20
2022-11-19T12:14:49.891Z,33.03
2022-11-19T12:17:37.101Z,33.17
2022-11-19T12:20:22.964Z,33.10
2022-11-19T12:23:07.843Z,32.20
2022-11-19T12:25:40.983Z,31.70
2022-11-19T12:28:23.317Z,30.40
2022-11-19T12:31:03.074Z,33.70
2022-11-19T12:33:46.309Z,33.50
2022-11-19T12:36:23.890Z,33.63
2022-11-19T12:38:59.776Z,31.23
2022-11-19T12:41:54.163Z,33.57
2022-11-19T12:44:31.159Z,33.33
2022-11-19T12:47:06.988Z,32.17
2022-11-19T12:49:59.126Z,32.40
2022-11-19T12:52:50.168Z,32.20
2022-11-19T12:55:26.090Z,32.87
2022-11-19T12:58:00.820Z,33.20
2022-11-19T13:00:31.257Z,33.70
2022-11-19T13:03:07.547Z,32.97
2022-11-19T13:05:44.262Z,34.83
2022-11-19T13:08:18.468Z,33.53
2022-11-19T13:10:49.408Z,34.83
2022-11-19T13:13:22.711Z,32.90
2022-11-19T13:15:58.115Z,32.17
2022-11-19T13:18:30.634Z,32.67
2022-11-19T13:21:03.767Z,31.17
2022-11-19T13:23:35.020Z,33.33
2022-11-19T13:26:06.756Z,32.27
2022-11-19T13:28:40.823Z,32.10
2022-11-19T13:31:15.106Z,33.33
2022-11-19T13:33:50.496Z,32.60
2022-11-19T13:36:27.883Z,34.37
2022-11-19T13:39:00.079Z,31.47
2022-11-19T13:41:31.932Z,30.30
2022-11-19T13:44:17.402Z,31.73
2022-11-19T13:46:49.073Z,28.80
2022-11-19T13:49:21.483Z,29.90
2022-11-19T13:51:53.962Z,29.33
2022-11-19T13:54:26.068Z,29.27
2022-11-19T13:56:56.929Z,29.17
2022-11-19T13:59:32.759Z,28.77
2022-11-19T14:02:16.220Z,29.40
2022-11-19T14:04:58.084Z,28.60
2022-11-19T14:07:45.231Z,28.20
2022-11-19T14:10:21.748Z,28.70
2022-11-19T14:13:07.956Z,28.07
2022-11-19T14:16:08.619Z,26.60
2022-11-19T14:18:58.408Z,26.20
2022-11-19T14:22:06.361Z,27.60
2022-11-19T14:25:11.743Z,26.37
2022-11-19T14:27:39.626Z,27.47
2022-11-19T14:30:09.701Z,26.47
2022-11-19T14:32:45.335Z,26.87
2022-11-19T14:35:41.538Z,26.60
2022-11-19T14:38:50.464Z,27.27
2022-11-19T14:41:30.497Z,25.83
2022-11-19T14:44:10.384Z,26.90
2022-11-19T14:46:47.652Z,28.07
2022-11-19T14:49:27.797Z,27.87
2022-11-19T14:51:57.553Z,28.70
2022-11-19T14:54:35.345Z,35.53
2022-11-19T14:57:08.464Z,33.53
2022-11-19T14:59:38.576Z,28.70
2022-11-19T15:02:17.357Z,28.60
2022-11-19T15:04:53.820Z,29.53
2022-11-19T15:07:35.436Z,29.70
2022-11-19T15:10:31.790Z,30.30
2022-11-19T15:13:23.476Z,33.43
2022-11-19T15:15:55.550Z,30.30
2022-11-19T15:18:41.600Z,28.00
2022-11-19T15:21:22.461Z,27.80
2022-11-19T15:24:04.357Z,30.10
2022-11-19T15:26:41.927Z,30.07
2022-11-19T15:29:19.120Z,30.00
2022-11-19T15:32:07.704Z,29.37
2022-11-19T15:35:10.296Z,28.37
2022-11-19T15:37:46.916Z,30.80
2022-11-19T15:40:19.812Z,32.03
2022-11-19T15:42:52.872Z,32.10
2022-11-19T15:45:25.124Z,31.00
2022-11-19T15:47:55.744Z,32.90
2022-11-19T15:50:25.365Z,32.33
2022-11-19T15:53:00.288Z,30.67
2022-11-19T15:55:30.889Z,31.53
2022-11-19T15:58:03.757Z,29.73
2022-11-19T16:00:33.051Z,28.57
2022-11-19T16:03:03.802Z,29.80
2022-11-19T16:05:32.802Z,29.73
2022-11-19T16:08:06.437Z,28.30
2022-11-19T16:10:36.485Z,33.23
2022-11-19T16:13:37.557Z,31.07
2022-11-19T16:16:33.573Z,31.97
2022-11-19T16:19:01.341Z,32.87
2022-11-19T16:21:34.741Z,31.67
2022-11-19T16:24:20.500Z,30.47
2022-11-19T16:26:49.534Z,30.90
2022-11-19T16:29:20.690Z,28.13
2022-11-19T16:31:51.995Z,31.20
2022-11-19T16:34:23.854Z,30.17
2022-11-19T16:36:52.441Z,29.63
2022-11-19T16:39:24.228Z,31.37
2022-11-19T16:42:15.679Z,30.90
2022-11-19T16:44:44.302Z,29.73
2022-11-19T16:47:21.669Z,29.67
2022-11-19T16:50:08.780Z,28.37
2022-11-19T16:52:38.473Z,28.73
2022-11-19T16:55:07.850Z,27.77
2022-11-19T16:57:35.498Z,28.87
2022-11-19T17:00:05.576Z,28.17
2022-11-19T17:02:41.629Z,29.90
2022-11-19T17:05:13.091Z,29.97
2022-11-19T17:07:43.371Z,30.60
2022-11-19T17:10:30.261Z,28.23
2022-11-19T17:12:59.858Z,28.23
2022-11-19T17:15:38.510Z,30.50
2022-11-19T17:18:15.848Z,28.80
2022-11-19T17:20:51.584Z,29.43
2022-11-19T17:23:21.500Z,27.97
2022-11-19T17:25:52.517Z,28.50
2022-11-19T17:28:22.578Z,26.63
2022-11-19T17:30:50.730Z,29.27
2022-11-19T17:33:22.825Z,29.27
2022-11-19T17:35:50.849Z,27.53
2022-11-19T17:38:20.723Z,27.83
2022-11-19T17:40:50.836Z,29.33
2022-11-19T17:43:39.145Z,28.40
2022-11-19T17:46:06.967Z,27.87
2022-11-19T17:48:36.048Z,27.07
2022-11-19T17:51:03.597Z,27.53
2022-11-19T17:53:31.265Z,28.10
2022-11-19T17:55:59.344Z,29.03
2022-11-19T17:58:26.926Z,26.70
2022-11-19T18:00:54.506Z,26.43
2022-11-19T18:03:22.182Z,27.47
2022-11-19T18:05:51.586Z,27.90
2022-11-19T18:08:19.336Z,28.23
2022-11-19T18:10:48.364Z,27.90
2022-11-19T18:13:19.773Z,28.17
2022-11-19T18:15:47.500Z,28.10
2022-11-19T18:18:15.161Z,27.77
2022-11-19T18:20:42.740Z,27.80
2022-11-19T18:23:14.698Z,28.17
2022-11-19T18:25:42.702Z,30.10
2022-11-19T18:28:10.436Z,28.40
2022-11-19T18:30:38.273Z,29.20
2022-11-19T18:33:05.904Z,27.93
2022-11-19T18:35:33.474Z,28.90
2022-11-19T18:38:01.060Z,29.03
2022-11-19T18:40:29.977Z,28.40
2022-11-19T18:43:14.943Z,29.30
2022-11-19T18:45:42.484Z,28.77
2022-11-19T18:48:10.035Z,28.77
2022-11-19T18:50:37.672Z,30.60
2022-11-19T18:53:05.200Z,30.27
2022-11-19T18:55:34.131Z,30.40
2022-11-19T18:58:01.684Z,29.70
2022-11-19T19:00:29.771Z,30.63
2022-11-19T19:02:57.386Z,31.73
2022-11-19T19:05:25.763Z,29.40
2022-11-19T19:07:53.398Z,30.57
2022-11-19T19:10:21.045Z,32.23
2022-11-19T19:12:49.017Z,32.40
2022-11-19T19:15:16.573Z,32.27
2022-11-19T19:17:44.192Z,31.43
2022-11-19T19:20:12.916Z,30.73
2022-11-19T19:22:40.569Z,30.93
2022-11-19T19:25:09.040Z,31.43
2022-11-19T19:27:36.616Z,31.53
2022-11-19T19:30:07.250Z,31.00
2022-11-19T19:32:34.836Z,32.50
2022-11-19T19:35:02.461Z,31.47
2022-11-19T19:37:30.027Z,31.00
2022-11-19T19:39:57.952Z,32.23
2022-11-19T19:42:25.648Z,31.23
2022-11-19T19:44:53.199Z,32.13
2022-11-19T19:47:22.468Z,32.47
2022-11-19T19:49:50.230Z,31.30
2022-11-19T19:52:17.897Z,31.70
2022-11-19T19:54:45.725Z,32.97
2022-11-19T19:57:15.587Z,34.00
2022-11-19T19:59:43.303Z,34.20
2022-11-19T20:02:11.314Z,32.97
2022-11-19T20:04:40.408Z,32.70
2022-11-19T20:07:08.361Z,34.70
2022-11-19T20:09:36.401Z,33.33
2022-11-19T20:12:04.035Z,33.23
2022-11-19T20:14:32.910Z,33.07
2022-11-19T20:17:00.472Z,35.50
2022-11-19T20:19:28.138Z,32.80
2022-11-19T20:21:57.108Z,33.93
2022-11-19T20:24:24.881Z,34.80
2022-11-19T20:26:52.557Z,35.33
2022-11-19T20:29:21.898Z,34.10
2022-11-19T20:31:50.508Z,33.10
2022-11-19T20:34:18.591Z,32.93
2022-11-19T20:36:46.253Z,33.43
2022-11-19T20:39:15.168Z,34.53
2022-11-19T20:42:00.461Z,34.90
2022-11-19T20:44:28.176Z,33.83
2022-11-19T20:46:57.439Z,34.40
2022-11-19T20:49:26.700Z,33.60
2022-11-19T20:51:54.647Z,33.37
2022-11-19T20:54:24.791Z,34.77
2022-11-19T20:56:53.477Z,33.30
2022-11-19T20:59:22.215Z,34.57
2022-11-19T21:01:50.459Z,34.63
2022-11-19T21:04:18.789Z,36.40
2022-11-19T21:06:46.737Z,34.67
2022-11-19T21:09:15.707Z,35.20
2022-11-19T21:11:44.715Z,34.27
2022-11-19T21:14:12.423Z,35.23
2022-11-19T21:16:40.028Z,36.13
2022-11-19T21:19:07.618Z,36.33
2022-11-19T21:21:35.368Z,34.77
2022-11-19T21:24:02.962Z,34.93
2022-11-19T21:26:31.048Z,36.03
2022-11-19T21:29:00.985Z,36.40
2022-11-19T21:31:39.330Z,37.77
2022-11-19T21:34:08.366Z,35.90
2022-11-19T21:36:36.278Z,34.73
2022-11-19T21:39:04.467Z,36.83
2022-11-19T21:41:32.124Z,37.47
2022-11-19T21:44:01.837Z,37.20
2022-11-19T21:46:29.500Z,36.87
2022-11-19T21:48:57.181Z,36.73
2022-11-19T21:51:25.511Z,37.73
2022-11-19T21:53:54.490Z,38.00
2022-11-19T21:56:22.072Z,37.17
2022-11-19T21:58:49.635Z,39.40
2022-11-19T22:01:18.787Z,37.50
2022-11-19T22:03:46.456Z,37.27
2022-11-19T22:06:14.152Z,37.00
2022-11-19T22:08:43.901Z,37.80
2022-11-19T22:11:31.233Z,38.00
2022-11-19T22:14:01.052Z,38.67
2022-11-19T22:16:30.555Z,38.27
2022-11-19T22:18:58.085Z,37.63
2022-11-19T22:21:27.363Z,36.20
2022-11-19T22:23:55.063Z,37.77
2022-11-19T22:26:22.642Z,37.63
2022-11-19T22:28:50.315Z,36.97
2022-11-19T22:31:18.055Z,37.70
2022-11-19T22:33:49.676Z,36.90
2022-11-19T22:36:17.253Z,38.47
2022-11-19T22:38:45.157Z,41.10
2022-11-19T22:41:14.256Z,39.77
2022-11-19T22:43:42.971Z,37.40
2022-11-19T22:46:11.912Z,37.93
2022-11-19T22:48:40.180Z,37.70
2022-11-19T22:51:12.914Z,39.80
2022-11-19T22:53:40.799Z,39.97
2022-11-19T22:56:10.322Z,40.07
2022-11-19T22:58:39.083Z,38.37
2022-11-19T23:01:07.927Z,39.87
2022-11-19T23:03:36.018Z,41.20
2022-11-19T23:06:03.565Z,41.47
2022-11-19T23:08:32.441Z,38.40
2022-11-19T23:11:01.244Z,37.20
2022-11-19T23:13:32.420Z,37.40
2022-11-19T23:16:06.228Z,36.37
2022-11-19T23:18:36.097Z,36.07
2022-11-19T23:21:06.509Z,35.90
2022-11-19T23:23:35.671Z,37.20
2022-11-19T23:26:04.732Z,36.57
2022-11-19T23:28:34.549Z,37.30
2022-11-19T23:31:06.534Z,38.93
2022-11-19T23:33:34.128Z,36.83
2022-11-19T23:36:03.137Z,38.63
2022-11-19T23:38:30.740Z,37.87
2022-11-19T23:41:00.792Z,37.80
2022-11-19T23:43:28.780Z,37.37
2022-11-19T23:45:57.597Z,36.03
2022-11-19T23:48:25.204Z,38.10
2022-11-19T23:50:52.735Z,37.60
2022-11-19T23:53:20.522Z,37.73
2022-11-19T23:55:48.476Z,37.13
2022-11-19T23:58:17.391Z,37.20
